Flight Track Log - Related Links

Times and Time Zones

All times are in EDT time to prevent confusion due to time zone crossing. See the CSJ405 flight status page for this flight to view local times or setup timezone preferences in your user account.

Time Position Orientation Groundspeed Altitude Reporting Facility
EDT Latitude Longitude Course Direction KTS MPH feet Rate Location/Type
Tue 01:29:16 AM 43.1667 -79.9000 90° East 20 23 800  Level Toronto Center
Tue 01:32:00 AM 43.1555 -79.7878 98° East  Level FlightAware Approximate
Tue 01:33:33 AM 43.1667 -79.8833 96° East 90 104 1,300  Level Toronto Center
Tue 01:34:33 AM 43.1500 -79.8667 144° Southeast 100 115 1,700 600 Climbing Toronto Center
Tue 01:35:03 AM 43.1500 -79.8333 90° East 110 127 2,200 733 Climbing Toronto Center
Tue 01:36:03 AM 43.1333 -79.8000 124° Southeast 110 127 2,800 650 Climbing Toronto Center
Tue 01:37:03 AM 43.1333 -79.7500 90° East 110 127 3,500 650 Climbing Toronto Center
Tue 01:38:03 AM 43.1667 -79.7167 36° Northeast 120 138 4,100 600 Climbing Toronto Center
Tue 01:39:00 AM 43.1397 -79.3316 96° East  Level FlightAware Approximate
Tue 01:39:03 AM 43.2000 -79.6833 36° Northeast 130 150 4,700  Level Toronto Center
Tue 01:40:03 AM 43.2167 -79.6500 56° Northeast 130 150 5,300 600 Climbing Toronto Center
Tue 01:41:03 AM 43.2500 -79.6167 36° Northeast 130 150 5,900 600 Climbing Toronto Center
Tue 01:42:03 AM 43.2667 -79.5833 56° Northeast 130 150 6,500 550 Climbing Toronto Center
Tue 01:43:03 AM 43.3000 -79.5333 47° Northeast 130 150 7,000 500 Climbing Toronto Center
Tue 01:44:03 AM 43.3167 -79.5167 36° Northeast 130 150 7,500 500 Climbing Toronto Center
Tue 01:45:03 AM 43.3500 -79.4667 47° Northeast 130 150 8,000 450 Climbing Toronto Center
Tue 01:46:03 AM 43.3667 -79.4500 36° Northeast 130 150 8,400 450 Climbing Toronto Center
Tue 01:47:03 AM 43.4000 -79.4000 47° Northeast 140 161 8,900 300 Climbing Toronto Center
Tue 01:48:03 AM 43.4333 -79.3500 47° Northeast 150 173 9,000 50 Climbing Toronto Center
Tue 01:49:03 AM 43.4667 -79.3333 20° North 160 184 9,000  Level Toronto Center
Tue 01:50:03 AM 43.4833 -79.2833 65° Northeast 160 184 9,000  Level Toronto Center
Tue 01:51:03 AM 43.5167 -79.2500 36° Northeast 160 184 9,000  Level Toronto Center
Tue 01:52:03 AM 43.5500 -79.1667 61° Northeast 160 184 9,000  Level Toronto Center
Tue 01:53:03 AM 43.5667 -79.1333 55° Northeast 160 184 9,000  Level Toronto Center
Tue 01:54:03 AM 43.5833 -79.0833 65° Northeast 160 184 9,000  Level Toronto Center
Tue 01:55:03 AM 43.6167 -79.0167 55° Northeast 160 184 9,000  Level Toronto Center
Tue 01:56:03 AM 43.6333 -78.9667 65° Northeast 160 184 9,000  Level Toronto Center
Tue 01:57:03 AM 43.6667 -78.9167 47° Northeast 170 196 9,000  Level Toronto Center
Tue 01:58:03 AM 43.6833 -78.8500 71° East 170 196 9,000  Level Toronto Center
Tue 01:59:03 AM 43.7167 -78.8000 47° Northeast 170 196 9,000  Level Toronto Center
Tue 02:00:03 AM 43.7333 -78.7333 71° East 170 196 9,000  Level Toronto Center
Tue 02:01:03 AM 43.7667 -78.6833 47° Northeast 170 196 9,000  Level Toronto Center
Tue 02:02:03 AM 43.7833 -78.6333 65° Northeast 160 184 9,000  Level Toronto Center
Tue 02:03:03 AM 43.8167 -78.6000 36° Northeast 170 196 9,000  Level Toronto Center
Tue 02:04:03 AM 43.8333 -78.5167 74° East 170 196 9,000  Level Toronto Center
Tue 02:05:03 AM 43.8500 -78.4833 55° Northeast 170 196 9,000  Level Toronto Center
Tue 02:06:03 AM 43.8667 -78.4000 74° East 170 196 9,000  Level Toronto Center
Tue 02:07:03 AM 43.9000 -78.3667 36° Northeast 160 184 9,000  Level Toronto Center
Tue 02:08:03 AM 43.9167 -78.3167 65° Northeast 160 184 9,000  Level Toronto Center
Tue 02:09:03 AM 43.9333 -78.2667 65° Northeast 160 184 9,000  Level Toronto Center
Tue 02:10:03 AM 43.9667 -78.2000 55° Northeast 160 184 9,000  Level Toronto Center
Tue 02:11:03 AM 43.9833 -78.1500 65° Northeast 160 184 9,000  Level Toronto Center
Tue 02:12:03 AM 44.0167 -78.0833 55° Northeast 160 184 9,000  Level Toronto Center
Tue 02:13:03 AM 44.0333 -78.0333 65° Northeast 160 184 9,000  Level Toronto Center
Tue 02:14:03 AM 44.0667 -77.9833 47° Northeast 160 184 9,000  Level Toronto Center
Tue 02:15:03 AM 44.0833 -77.9333 65° Northeast 160 184 9,000  Level Toronto Center
Tue 02:16:03 AM 44.1167 -77.8667 55° Northeast 160 184 9,000  Level Toronto Center
Tue 02:17:03 AM 44.1333 -77.8167 65° Northeast 160 184 9,000  Level Toronto Center
Tue 02:19:03 AM 44.1833 -77.7000 59° Northeast 170 196 9,000  Level Toronto Center
Tue 02:20:03 AM 44.2000 -77.6500 65° Northeast 170 196 9,000  Level Toronto Center
Tue 02:21:03 AM 44.2333 -77.6000 47° Northeast 170 196 9,000  Level Toronto Center
Tue 02:22:03 AM 44.2667 -77.5333 55° Northeast 170 196 9,000  Level Toronto Center
Tue 02:23:03 AM 44.2833 -77.4833 65° Northeast 170 196 9,000  Level Toronto Center
Tue 02:24:03 AM 44.3000 -77.4500 55° Northeast 170 196 9,000  Level Toronto Center
Tue 02:25:03 AM 44.3167 -77.3667 74° East 170 196 9,000  Level Toronto Center
Tue 02:26:03 AM 44.3333 -77.3167 65° Northeast 170 196 9,000  Level Toronto Center
Tue 02:27:03 AM 44.3667 -77.2500 55° Northeast 170 196 9,000  Level Toronto Center
Tue 02:27:52 AM 44.4000 -77.2500 360° North 170 196 9,000  Level Montreal Center
Tue 02:28:52 AM 44.4167 -77.1833 71° East 170 196 9,000  Level Montreal Center
Tue 02:29:52 AM 44.4333 -77.1333 65° Northeast 170 196 9,000  Level Montreal Center
Tue 02:30:52 AM 44.4667 -77.0667 55° Northeast 170 196 9,000  Level Montreal Center
Tue 02:31:52 AM 44.4833 -77.0167 65° Northeast 170 196 9,000  Level Montreal Center
Tue 02:32:52 AM 44.5000 -76.9833 55° Northeast 170 196 9,000  Level Montreal Center
Tue 02:33:52 AM 44.5333 -76.9000 61° Northeast 170 196 9,000  Level Montreal Center
Tue 02:34:52 AM 44.5500 -76.8667 55° Northeast 170 196 9,000  Level Montreal Center
Tue 02:35:52 AM 44.5833 -76.7833 61° Northeast 170 196 9,000  Level Montreal Center
Tue 02:36:52 AM 44.6000 -76.7500 55° Northeast 170 196 9,000  Level Montreal Center
Tue 02:37:52 AM 44.6333 -76.6667 61° Northeast 170 196 9,000  Level Montreal Center
Tue 02:39:03 AM 44.6500 -76.5833 74° East 170 196 9,000  Level Toronto Center
Tue 02:40:03 AM 44.6833 -76.5167 55° Northeast 170 196 9,000  Level Toronto Center
Tue 02:41:03 AM 44.7000 -76.4667 65° Northeast 170 196 9,000  Level Toronto Center
Tue 02:42:03 AM 44.7333 -76.4000 55° Northeast 170 196 9,000  Level Toronto Center
Tue 02:43:03 AM 44.7500 -76.3500 65° Northeast 180 207 9,000  Level Toronto Center
Tue 02:44:03 AM 44.7833 -76.2667 61° Northeast 180 207 9,000  Level Toronto Center
Tue 02:45:03 AM 44.8000 -76.2167 65° Northeast 180 207 9,000  Level Toronto Center
Tue 02:46:03 AM 44.8333 -76.1500 55° Northeast 180 207 9,000  Level Toronto Center
Tue 02:47:03 AM 44.8500 -76.1000 65° Northeast 180 207 9,000  Level Toronto Center
Tue 02:48:03 AM 44.8667 -76.0333 71° East 180 207 9,000  Level Toronto Center
Tue 02:49:03 AM 44.9000 -75.9833 47° Northeast 180 207 9,000  Level Toronto Center
Tue 02:50:03 AM 44.9167 -75.9167 71° East 180 207 9,000  Level Toronto Center
Tue 02:51:03 AM 44.9500 -75.8667 47° Northeast 180 207 9,000  Level Toronto Center
Tue 02:52:03 AM 44.9667 -75.7833 74° East 180 207 9,000  Level Toronto Center
Tue 02:53:03 AM 45.0000 -75.7333 47° Northeast 180 207 9,000  Level Toronto Center
Tue 02:54:03 AM 45.0167 -75.6667 71° East 180 207 9,000  Level Toronto Center
Tue 02:55:03 AM 45.0500 -75.6167 47° Northeast 180 207 9,000  Level Toronto Center
Tue 02:56:03 AM 45.0667 -75.5500 70° East 180 207 9,000  Level Toronto Center
Tue 02:57:03 AM 45.0833 -75.5000 65° Northeast 180 207 9,000  Level Toronto Center
Tue 02:58:03 AM 45.1167 -75.4333 55° Northeast 180 207 9,000  Level Toronto Center
Tue 02:59:03 AM 45.1333 -75.3833 65° Northeast 180 207 9,000  Level Toronto Center
Tue 03:00:03 AM 45.1667 -75.3000 60° Northeast 180 207 9,000  Level Toronto Center
Tue 03:01:03 AM 45.1833 -75.2500 65° Northeast 180 207 9,000  Level Toronto Center
Tue 03:02:03 AM 45.2167 -75.1833 55° Northeast 180 207 9,000  Level Toronto Center
Tue 03:03:03 AM 45.2333 -75.1000 74° East 180 207 9,000  Level Toronto Center
Tue 03:04:03 AM 45.2500 -75.0667 55° Northeast 180 207 9,000  Level Toronto Center
Tue 03:04:52 AM 45.2833 -75.0333 35° Northeast 180 207 9,000  Level Montreal Center
Tue 03:05:52 AM 45.3000 -74.9667 70° East 180 207 9,000  Level Montreal Center
Tue 03:06:52 AM 45.3333 -74.9000 55° Northeast 180 207 9,000  Level Montreal Center
Tue 03:07:52 AM 45.3500 -74.8500 65° Northeast 180 207 9,000  Level Montreal Center
Tue 03:08:52 AM 45.3833 -74.7833 55° Northeast 180 207 9,000  Level Montreal Center
Tue 03:09:52 AM 45.4000 -74.7333 65° Northeast 180 207 9,000 -200 Level Montreal Center
Tue 03:10:52 AM 45.4333 -74.6500 60° Northeast 190 219 8,600 -500 Descending Montreal Center
Tue 03:11:52 AM 45.4500 -74.5833 70° East 200 230 8,000 -700 Descending Montreal Center
Tue 03:12:52 AM 45.4667 -74.4833 77° East 200 230 7,200 -800 Descending Montreal Center
Tue 03:13:52 AM 45.4833 -74.4167 70° East 200 230 6,400 -850 Descending Montreal Center
Tue 03:14:52 AM 45.5000 -74.3500 70° East 210 242 5,500 -900 Descending Montreal Center
Tue 03:15:52 AM 45.5333 -74.2667 60° Northeast 210 242 4,600 -940 Descending Montreal Center
Tue 03:18:00 AM 45.5931 -74.1737 64° Northeast  Level Estimated
Tue 03:19:52 AM 45.6500 -74.0333 60° Northeast 140 161 800  Level Montreal Center
Tue 03:20:52 AM 45.6833 -74.0000 35° Northeast 100 115 400 -400 Descending Montreal Center
Tue 03:25:00 AM 45.6667 -74.0333 60° Northeast  Level FlightAware Approximate

Login

Don't have an account? Register now (free) for customized features, flight alerts, and more!